createdAt,value
2023-09-09T00:00:38.012Z,72.59
2023-09-09T00:01:38.015Z,71.60
2023-09-09T00:02:37.971Z,72.58
2023-09-09T00:03:38.200Z,72.69
2023-09-09T00:04:37.929Z,71.60
2023-09-09T00:05:37.924Z,72.38
2023-09-09T00:06:37.932Z,71.26
2023-09-09T00:07:37.854Z,69.01
2023-09-09T00:08:37.832Z,72.56
2023-09-09T00:09:37.848Z,70.93
2023-09-09T00:10:37.821Z,69.19
2023-09-09T00:11:37.807Z,71.34
2023-09-09T00:12:37.782Z,70.65
2023-09-09T00:13:38.057Z,72.45
2023-09-09T00:14:37.714Z,70.73
2023-09-09T00:15:37.767Z,71.22
2023-09-09T00:16:37.795Z,71.45
2023-09-09T00:17:38.673Z,71.55
2023-09-09T00:18:37.630Z,70.15
2023-09-09T00:19:37.612Z,68.86
2023-09-09T00:20:37.624Z,70.59
2023-09-09T00:21:37.578Z,72.80
2023-09-09T00:22:37.556Z,70.02
2023-09-09T00:23:37.750Z,71.05
2023-09-09T00:24:37.589Z,69.95
2023-09-09T00:25:37.529Z,69.97
2023-09-09T00:26:37.482Z,70.71
2023-09-09T00:27:37.450Z,71.54
2023-09-09T00:28:37.484Z,67.00
2023-09-09T00:29:37.452Z,71.17
2023-09-09T00:30:37.397Z,71.88
2023-09-09T00:31:37.446Z,70.33
2023-09-09T00:32:37.381Z,69.96
2023-09-09T00:33:37.520Z,71.04
2023-09-09T00:34:37.348Z,70.89
2023-09-09T00:35:37.296Z,73.10
2023-09-09T00:36:37.278Z,67.90
2023-09-09T00:37:37.263Z,69.27
2023-09-09T00:38:37.263Z,71.91
2023-09-09T00:39:37.242Z,68.39
2023-09-09T00:40:37.228Z,68.07
2023-09-09T00:41:38.170Z,74.57
2023-09-09T00:42:37.151Z,71.48
2023-09-09T00:43:37.340Z,72.92
2023-09-09T00:44:37.116Z,71.09
2023-09-09T00:45:37.092Z,69.78
2023-09-09T00:46:37.167Z,70.35
2023-09-09T00:47:37.199Z,71.76
2023-09-09T00:48:37.114Z,71.65
2023-09-09T00:49:37.013Z,70.11
2023-09-09T00:50:37.018Z,70.05
2023-09-09T00:51:36.974Z,67.24
2023-09-09T00:52:37.018Z,68.62
2023-09-09T00:53:37.261Z,71.45
2023-09-09T00:54:36.944Z,70.13
2023-09-09T00:55:36.910Z,72.33
2023-09-09T00:56:36.873Z,70.35
2023-09-09T00:57:36.886Z,69.75
2023-09-09T00:58:36.924Z,72.28
2023-09-09T00:59:36.818Z,72.60
2023-09-09T01:00:36.794Z,67.38
2023-09-09T01:01:36.845Z,69.92
2023-09-09T01:02:36.928Z,66.52
2023-09-09T01:03:37.328Z,72.93
2023-09-09T01:04:36.757Z,69.56
2023-09-09T01:05:36.694Z,68.77
2023-09-09T01:06:36.702Z,70.91
2023-09-09T01:07:36.664Z,70.17
2023-09-09T01:08:36.635Z,73.46
2023-09-09T01:09:36.614Z,71.65
2023-09-09T01:10:36.594Z,69.97
2023-09-09T01:11:36.607Z,73.42
2023-09-09T01:12:36.554Z,71.15
2023-09-09T01:13:37.009Z,73.13
2023-09-09T01:14:36.646Z,73.67
2023-09-09T01:15:36.528Z,69.47
2023-09-09T01:16:36.543Z,70.85
2023-09-09T01:17:36.579Z,66.08
2023-09-09T01:18:36.432Z,70.08
2023-09-09T01:19:36.409Z,69.98
2023-09-09T01:20:36.458Z,69.92
2023-09-09T01:21:36.407Z,69.84
2023-09-09T01:22:36.357Z,71.05
2023-09-09T01:23:36.685Z,71.20
2023-09-09T01:24:36.316Z,74.37
2023-09-09T01:25:36.328Z,67.93
2023-09-09T01:26:36.300Z,71.54
2023-09-09T01:27:36.252Z,71.96
2023-09-09T01:28:36.247Z,73.83
2023-09-09T01:29:36.252Z,73.00
2023-09-09T01:30:36.229Z,71.84
2023-09-09T01:31:36.288Z,71.49
2023-09-09T01:32:37.325Z,70.97
2023-09-09T01:33:36.399Z,69.47
2023-09-09T01:34:36.136Z,71.64
2023-09-09T01:35:37.106Z,73.22
2023-09-09T01:36:36.095Z,73.96
2023-09-09T01:37:36.094Z,71.98
2023-09-09T01:38:36.041Z,69.66
2023-09-09T01:39:36.092Z,72.68
2023-09-09T01:40:35.999Z,73.30
2023-09-09T01:41:36.001Z,73.26
2023-09-09T01:42:35.988Z,72.30
2023-09-09T01:43:36.223Z,71.93
2023-09-09T01:44:35.964Z,75.00
2023-09-09T01:45:35.919Z,73.27
2023-09-09T01:46:35.960Z,73.13
2023-09-09T01:47:35.907Z,72.25
2023-09-09T01:48:35.878Z,69.25
2023-09-09T01:49:35.811Z,72.05
2023-09-09T01:50:35.796Z,72.03
2023-09-09T01:51:35.781Z,69.09
2023-09-09T01:52:35.751Z,70.79
2023-09-09T01:53:36.002Z,70.51
2023-09-09T01:54:35.715Z,72.98
2023-09-09T01:55:35.719Z,68.63
2023-09-09T01:56:35.681Z,73.72
2023-09-09T01:57:35.701Z,68.79
2023-09-09T01:58:35.642Z,70.78
2023-09-09T01:59:35.703Z,68.82
2023-09-09T02:00:35.616Z,70.30
2023-09-09T02:01:35.628Z,68.07
2023-09-09T02:02:35.680Z,70.58
2023-09-09T02:03:35.882Z,72.22
2023-09-09T02:04:35.529Z,73.56
2023-09-09T02:05:35.497Z,71.45
2023-09-09T02:06:35.476Z,72.42
2023-09-09T02:07:35.479Z,72.26
2023-09-09T02:08:36.304Z,70.58
2023-09-09T02:09:35.410Z,69.91
2023-09-09T02:10:35.390Z,69.52
2023-09-09T02:11:35.412Z,72.99
2023-09-09T02:12:35.396Z,72.11
2023-09-09T02:13:35.480Z,70.03
2023-09-09T02:14:35.311Z,70.26
2023-09-09T02:15:35.327Z,70.26
2023-09-09T02:16:35.381Z,72.79
2023-09-09T02:17:35.270Z,70.39
2023-09-09T02:18:35.244Z,73.30
2023-09-09T02:19:35.273Z,73.73
2023-09-09T02:20:35.186Z,70.60
2023-09-09T02:21:35.198Z,71.61
2023-09-09T02:22:35.142Z,70.25
2023-09-09T02:23:35.365Z,68.84
2023-09-09T02:24:35.112Z,69.01
2023-09-09T02:25:35.166Z,70.68
2023-09-09T02:26:35.091Z,71.89
2023-09-09T02:27:35.041Z,69.90
2023-09-09T02:28:35.099Z,69.04
2023-09-09T02:29:35.173Z,72.69
2023-09-09T02:30:35.108Z,72.32
2023-09-09T02:31:35.097Z,73.78
2023-09-09T02:32:35.081Z,71.64
2023-09-09T02:33:35.149Z,67.23
2023-09-09T02:34:34.895Z,71.19
2023-09-09T02:35:35.043Z,71.43
2023-09-09T02:36:34.860Z,70.47
2023-09-09T02:37:34.834Z,71.35
2023-09-09T02:38:34.813Z,68.78
2023-09-09T02:39:34.891Z,68.69
2023-09-09T02:40:34.798Z,71.07
2023-09-09T02:41:34.753Z,67.15
2023-09-09T02:42:34.751Z,69.87
2023-09-09T02:43:34.955Z,71.48
2023-09-09T02:44:34.746Z,72.30
2023-09-09T02:45:34.669Z,72.74
2023-09-09T02:46:34.756Z,72.47
2023-09-09T02:47:34.622Z,70.63
2023-09-09T02:48:34.606Z,69.62
2023-09-09T02:49:34.638Z,67.07
2023-09-09T02:50:34.559Z,72.45
2023-09-09T02:51:34.538Z,71.73
2023-09-09T02:52:34.545Z,71.73
2023-09-09T02:53:34.638Z,71.87
2023-09-09T02:54:34.503Z,72.15
2023-09-09T02:55:34.493Z,72.72
2023-09-09T02:56:34.435Z,70.70
2023-09-09T02:57:34.419Z,72.39
2023-09-09T02:58:34.450Z,71.63
2023-09-09T02:59:34.392Z,74.16
2023-09-09T03:00:34.354Z,72.36
2023-09-09T03:01:34.460Z,70.41
2023-09-09T03:02:34.386Z,73.52
2023-09-09T03:03:34.486Z,74.00
2023-09-09T03:04:34.283Z,72.54
2023-09-09T03:05:34.252Z,71.17
2023-09-09T03:06:34.276Z,72.45
2023-09-09T03:07:35.248Z,72.23
2023-09-09T03:08:34.234Z,71.33
2023-09-09T03:09:34.175Z,71.59
2023-09-09T03:10:34.189Z,71.55
2023-09-09T03:11:34.135Z,71.86
2023-09-09T03:12:34.193Z,72.59
2023-09-09T03:13:34.097Z,73.58
2023-09-09T03:14:34.079Z,71.82
2023-09-09T03:15:34.052Z,73.62
2023-09-09T03:16:34.050Z,73.16
2023-09-09T03:17:34.075Z,71.12
2023-09-09T03:18:34.039Z,70.60
2023-09-09T03:19:33.963Z,71.76
2023-09-09T03:20:33.968Z,72.39
2023-09-09T03:21:33.919Z,72.33
2023-09-09T03:22:33.930Z,74.06
2023-09-09T03:23:33.880Z,75.08
2023-09-09T03:24:33.861Z,73.15
2023-09-09T03:25:33.878Z,69.32
2023-09-09T03:26:33.941Z,70.62
2023-09-09T03:27:33.804Z,73.00
2023-09-09T03:28:33.785Z,71.63
2023-09-09T03:29:33.874Z,72.70
2023-09-09T03:30:33.735Z,70.46
2023-09-09T03:31:33.754Z,70.43
2023-09-09T03:32:33.727Z,70.48
2023-09-09T03:33:33.704Z,73.96
2023-09-09T03:34:33.656Z,71.18
2023-09-09T03:35:33.662Z,73.74
2023-09-09T03:36:33.645Z,69.54
2023-09-09T03:37:33.600Z,70.77
2023-09-09T03:38:33.573Z,72.64
2023-09-09T03:39:33.582Z,72.04
2023-09-09T03:40:33.559Z,71.82
2023-09-09T03:41:33.542Z,72.25
2023-09-09T03:42:33.492Z,72.34
2023-09-09T03:43:33.665Z,72.20
2023-09-09T03:44:33.454Z,71.08
2023-09-09T03:45:33.487Z,70.68
2023-09-09T03:46:33.459Z,75.10
2023-09-09T03:47:33.459Z,75.11
2023-09-09T03:48:33.413Z,71.91
2023-09-09T03:49:33.385Z,70.76
2023-09-09T03:50:33.357Z,74.46
2023-09-09T03:51:33.307Z,73.42
2023-09-09T03:52:33.375Z,72.42
2023-09-09T03:53:33.287Z,72.71
2023-09-09T03:54:33.282Z,69.96
2023-09-09T03:55:33.236Z,71.14
2023-09-09T03:56:33.203Z,73.83
2023-09-09T03:57:33.186Z,74.29
2023-09-09T03:58:33.170Z,72.94
2023-09-09T03:59:33.169Z,72.53
2023-09-09T04:00:33.170Z,72.26
2023-09-09T04:01:33.172Z,72.74
2023-09-09T04:02:33.098Z,72.95
2023-09-09T04:03:33.239Z,72.74
2023-09-09T04:04:33.147Z,72.32
2023-09-09T04:05:33.011Z,72.21
2023-09-09T04:06:32.991Z,71.54
2023-09-09T04:07:33.008Z,73.59
2023-09-09T04:08:33.048Z,72.31
2023-09-09T04:09:32.927Z,71.02
2023-09-09T04:10:32.916Z,71.71
2023-09-09T04:11:32.884Z,72.02
2023-09-09T04:12:32.873Z,73.02
2023-09-09T04:13:32.919Z,74.01
2023-09-09T04:14:32.831Z,73.74
2023-09-09T04:15:32.808Z,73.71
2023-09-09T04:16:32.876Z,73.56
2023-09-09T04:17:32.887Z,72.83
2023-09-09T04:18:45.094Z,74.41
2023-09-09T04:19:34.764Z,70.35
2023-09-09T04:20:32.706Z,74.66
2023-09-09T04:21:32.686Z,73.78
2023-09-09T04:22:32.702Z,74.43
2023-09-09T04:23:32.645Z,71.63
2023-09-09T04:24:32.674Z,73.51
2023-09-09T04:25:32.604Z,75.32
2023-09-09T04:26:32.604Z,72.32
2023-09-09T04:27:32.639Z,72.40
2023-09-09T04:28:32.536Z,75.17
2023-09-09T04:29:33.521Z,74.31
2023-09-09T04:30:32.519Z,73.93
2023-09-09T04:31:32.514Z,72.98
2023-09-09T04:32:32.547Z,73.88
2023-09-09T04:33:32.436Z,73.96
2023-09-09T04:34:32.418Z,74.91
2023-09-09T04:35:32.399Z,74.38
2023-09-09T04:36:32.402Z,71.86
2023-09-09T04:37:32.358Z,73.80
2023-09-09T04:38:32.345Z,73.68
2023-09-09T04:39:32.313Z,75.15
2023-09-09T04:40:32.294Z,74.95
2023-09-09T04:41:32.301Z,73.87
2023-09-09T04:42:32.253Z,73.52
2023-09-09T04:43:32.233Z,73.97
2023-09-09T04:44:32.209Z,73.40
2023-09-09T04:45:32.405Z,73.64
2023-09-09T04:46:32.215Z,73.81
2023-09-09T04:47:32.180Z,74.41
2023-09-09T04:48:32.197Z,75.08
2023-09-09T04:49:32.135Z,75.02
2023-09-09T04:50:32.126Z,74.60
2023-09-09T04:51:32.067Z,73.34
2023-09-09T04:52:32.900Z,74.36
2023-09-09T04:53:32.033Z,70.50
2023-09-09T04:54:32.011Z,74.18
2023-09-09T04:55:32.047Z,73.58
2023-09-09T04:56:31.969Z,74.75
2023-09-09T04:57:31.943Z,72.65
2023-09-09T04:58:31.985Z,72.84
2023-09-09T04:59:31.935Z,69.55
2023-09-09T05:00:31.920Z,75.05
2023-09-09T05:01:31.965Z,73.53
2023-09-09T05:02:31.900Z,72.37
2023-09-09T05:03:31.856Z,72.58
2023-09-09T05:04:31.875Z,72.85
2023-09-09T05:05:31.787Z,73.56
2023-09-09T05:06:31.770Z,73.20
2023-09-09T05:07:31.749Z,72.95
2023-09-09T05:08:31.737Z,72.11
2023-09-09T05:09:31.754Z,72.70
2023-09-09T05:10:31.690Z,73.12
2023-09-09T05:11:31.684Z,73.72
2023-09-09T05:12:31.691Z,73.34
2023-09-09T05:13:31.696Z,74.19
2023-09-09T05:14:31.647Z,70.89
2023-09-09T05:15:31.600Z,73.02
2023-09-09T05:16:31.680Z,74.50
2023-09-09T05:17:31.622Z,74.08
2023-09-09T05:18:31.571Z,73.35
2023-09-09T05:19:31.611Z,73.80
2023-09-09T05:20:31.508Z,74.18
2023-09-09T05:21:31.493Z,73.21
2023-09-09T05:22:31.494Z,72.09
2023-09-09T05:23:31.478Z,73.25
2023-09-09T05:24:33.472Z,71.96
2023-09-09T05:25:31.419Z,73.13
2023-09-09T05:26:31.409Z,70.12
2023-09-09T05:27:31.424Z,72.10
2023-09-09T05:28:31.386Z,71.54
2023-09-09T05:29:31.348Z,73.98
2023-09-09T05:30:31.330Z,72.74
2023-09-09T05:31:32.417Z,72.45
2023-09-09T05:32:32.416Z,71.14
2023-09-09T05:33:31.351Z,70.65
2023-09-09T05:34:31.261Z,70.49
2023-09-09T05:35:31.239Z,71.63
2023-09-09T05:36:31.253Z,72.26
2023-09-09T05:37:31.244Z,70.03
2023-09-09T05:38:31.189Z,70.15
2023-09-09T05:39:31.168Z,71.09
2023-09-09T05:40:31.149Z,70.19
2023-09-09T05:41:31.165Z,70.75
2023-09-09T05:42:31.153Z,71.42
2023-09-09T05:43:31.097Z,70.73
2023-09-09T05:44:31.086Z,72.43
2023-09-09T05:45:31.102Z,71.79
2023-09-09T05:46:31.197Z,71.57
2023-09-09T05:47:31.048Z,71.11
2023-09-09T05:48:31.014Z,71.27
2023-09-09T05:49:38.754Z,71.62
2023-09-09T05:50:33.010Z,71.29
2023-09-09T05:51:30.989Z,69.08
2023-09-09T05:52:31.019Z,70.47
2023-09-09T05:53:31.091Z,71.79
2023-09-09T05:54:30.910Z,70.65
2023-09-09T05:55:30.918Z,69.01
2023-09-09T05:56:30.909Z,71.25
2023-09-09T05:57:30.857Z,71.65
2023-09-09T05:58:30.839Z,69.45
2023-09-09T05:59:30.905Z,68.37
2023-09-09T06:00:30.839Z,70.06
2023-09-09T06:01:30.799Z,70.16
2023-09-09T06:02:30.803Z,70.15
2023-09-09T06:03:30.809Z,70.11
2023-09-09T06:04:30.851Z,70.62
2023-09-09T06:05:30.755Z,69.59
2023-09-09T06:06:30.707Z,70.04
2023-09-09T06:07:30.688Z,68.71
2023-09-09T06:08:30.679Z,69.35
2023-09-09T06:09:30.688Z,68.63
2023-09-09T06:10:30.686Z,71.32
2023-09-09T06:11:30.622Z,70.07
2023-09-09T06:12:30.622Z,70.92
2023-09-09T06:13:31.630Z,68.83
2023-09-09T06:14:30.605Z,69.32
2023-09-09T06:15:30.552Z,69.50
2023-09-09T06:16:30.595Z,69.02
2023-09-09T06:17:30.564Z,68.81
2023-09-09T06:18:30.559Z,70.57
2023-09-09T06:19:30.517Z,70.39
2023-09-09T06:20:30.477Z,70.48
2023-09-09T06:21:30.452Z,70.87
2023-09-09T06:22:30.439Z,70.64
2023-09-09T06:23:30.457Z,70.00
2023-09-09T06:24:30.405Z,68.72
2023-09-09T06:25:30.392Z,69.85
2023-09-09T06:26:30.386Z,67.31
2023-09-09T06:27:30.392Z,70.21
2023-09-09T06:28:30.404Z,70.35
2023-09-09T06:29:30.527Z,70.41
2023-09-09T06:30:30.318Z,68.99
2023-09-09T06:31:30.399Z,69.04
2023-09-09T06:32:30.450Z,68.57
2023-09-09T06:33:30.275Z,67.35
2023-09-09T06:34:30.263Z,69.41
2023-09-09T06:35:30.326Z,67.15
2023-09-09T06:36:30.218Z,69.68
2023-09-09T06:37:30.238Z,68.77
2023-09-09T06:38:30.226Z,67.00
2023-09-09T06:39:30.168Z,68.27
2023-09-09T06:40:30.153Z,69.83
2023-09-09T06:41:30.178Z,68.95
2023-09-09T06:42:30.160Z,67.56
2023-09-09T06:43:30.115Z,69.80
2023-09-09T06:44:30.089Z,67.27
2023-09-09T06:45:30.879Z,70.28
2023-09-09T06:46:30.146Z,68.40
2023-09-09T06:47:30.129Z,70.71
2023-09-09T06:48:30.184Z,68.79
2023-09-09T06:49:30.015Z,69.86
2023-09-09T06:50:30.024Z,68.43
2023-09-09T06:51:30.012Z,68.42
2023-09-09T06:52:29.975Z,69.28
2023-09-09T06:53:30.055Z,68.92
2023-09-09T06:54:29.941Z,66.49
2023-09-09T06:55:29.957Z,66.13
2023-09-09T06:56:29.937Z,68.67
2023-09-09T06:57:29.889Z,66.98
2023-09-09T06:58:29.878Z,68.25
2023-09-09T06:59:29.859Z,67.76
2023-09-09T07:00:29.866Z,68.69
2023-09-09T07:01:29.828Z,67.65
2023-09-09T07:02:29.867Z,68.97
2023-09-09T07:03:29.866Z,66.36
2023-09-09T07:04:29.821Z,67.88
2023-09-09T07:05:29.791Z,68.33
2023-09-09T07:06:29.759Z,68.80
2023-09-09T07:07:33.565Z,66.09
2023-09-09T07:08:31.748Z,67.89
2023-09-09T07:09:29.735Z,67.76
2023-09-09T07:10:29.717Z,67.74
2023-09-09T07:11:29.678Z,68.81
2023-09-09T07:12:29.686Z,67.33
2023-09-09T07:13:29.652Z,65.88
2023-09-09T07:14:31.512Z,64.17
2023-09-09T07:16:29.657Z,67.87
2023-09-09T07:17:29.601Z,67.77
2023-09-09T07:18:29.600Z,68.35
2023-09-09T07:19:29.589Z,67.26
2023-09-09T07:20:29.560Z,66.38
2023-09-09T07:21:29.527Z,67.28
2023-09-09T07:22:29.515Z,66.11
2023-09-09T07:23:29.523Z,65.89
2023-09-09T07:24:29.515Z,68.64
2023-09-09T07:25:29.667Z,68.13
2023-09-09T07:26:29.449Z,66.23
2023-09-09T07:27:29.429Z,68.33
2023-09-09T07:28:29.443Z,65.21
2023-09-09T07:29:29.437Z,67.14
2023-09-09T07:30:29.394Z,67.14
2023-09-09T07:31:29.462Z,67.86
2023-09-09T07:32:29.431Z,67.35
2023-09-09T07:33:29.368Z,67.86
2023-09-09T07:34:29.329Z,67.56
2023-09-09T07:35:29.316Z,67.82
2023-09-09T07:36:29.297Z,68.00
2023-09-09T07:37:29.442Z,66.76
2023-09-09T07:38:30.299Z,68.05
2023-09-09T07:39:29.275Z,67.78
2023-09-09T07:40:29.243Z,68.39
2023-09-09T07:41:29.228Z,67.01
2023-09-09T07:42:29.246Z,66.12
2023-09-09T07:43:29.205Z,66.87
2023-09-09T07:44:29.187Z,66.67
2023-09-09T07:45:29.173Z,66.70
2023-09-09T07:46:29.155Z,67.25
2023-09-09T07:47:29.203Z,65.88
2023-09-09T07:48:29.120Z,65.91
2023-09-09T07:49:29.103Z,68.30
2023-09-09T07:50:29.150Z,67.19
2023-09-09T07:51:29.104Z,67.47
2023-09-09T07:52:29.092Z,68.18
2023-09-09T07:53:29.049Z,67.61
2023-09-09T07:54:29.031Z,68.60
2023-09-09T07:55:30.524Z,67.40
2023-09-09T07:56:29.028Z,65.79
2023-09-09T07:57:28.997Z,67.99
2023-09-09T07:58:28.973Z,68.64
2023-09-09T07:59:28.958Z,68.65
2023-09-09T08:00:29.004Z,67.55
2023-09-09T08:01:28.987Z,67.51
2023-09-09T08:02:28.937Z,69.84
2023-09-09T08:03:28.993Z,68.62
2023-09-09T08:04:28.914Z,69.46
2023-09-09T08:05:28.889Z,66.66
2023-09-09T08:06:28.883Z,69.31
2023-09-09T08:07:28.841Z,68.80
2023-09-09T08:08:28.816Z,68.53
2023-09-09T08:09:28.803Z,66.77
2023-09-09T08:10:28.815Z,65.81
2023-09-09T08:11:28.777Z,68.65
2023-09-09T08:12:28.754Z,68.84
2023-09-09T08:13:28.743Z,68.22
2023-09-09T08:14:28.754Z,67.54
2023-09-09T08:15:40.025Z,67.67
2023-09-09T08:16:33.661Z,67.31
2023-09-09T08:17:28.683Z,68.67
2023-09-09T08:18:28.681Z,68.15
2023-09-09T08:19:28.712Z,65.28
2023-09-09T08:20:28.630Z,65.68
2023-09-09T08:21:28.613Z,68.18
2023-09-09T08:22:28.633Z,66.10
2023-09-09T08:23:28.594Z,67.26
2023-09-09T08:24:28.605Z,68.27
2023-09-09T08:25:28.551Z,67.89
2023-09-09T08:26:28.577Z,67.56
2023-09-09T08:27:28.525Z,66.55
2023-09-09T08:28:28.542Z,68.50
2023-09-09T08:29:28.517Z,68.64
2023-09-09T08:30:28.475Z,67.82
2023-09-09T08:31:28.508Z,64.20
2023-09-09T08:32:28.502Z,65.55
2023-09-09T08:33:28.459Z,69.24
2023-09-09T08:34:28.413Z,67.78
2023-09-09T08:35:28.407Z,68.84
2023-09-09T08:36:28.381Z,68.38
2023-09-09T08:37:28.370Z,67.58
2023-09-09T08:38:28.451Z,67.73
2023-09-09T08:39:28.335Z,68.33
2023-09-09T08:40:28.318Z,67.07
2023-09-09T08:41:28.349Z,66.68
2023-09-09T08:42:28.315Z,68.68
2023-09-09T08:43:28.301Z,66.94
2023-09-09T08:44:28.271Z,67.66
2023-09-09T08:45:28.267Z,67.81
2023-09-09T08:46:28.225Z,67.41
2023-09-09T08:47:29.527Z,67.33
2023-09-09T08:48:29.248Z,67.87
2023-09-09T08:49:28.176Z,64.97
2023-09-09T08:50:28.174Z,66.47
2023-09-09T08:51:28.147Z,66.98
2023-09-09T08:52:28.187Z,68.28
2023-09-09T08:53:28.112Z,66.92
2023-09-09T08:54:28.103Z,66.41
2023-09-09T08:55:28.098Z,66.48
2023-09-09T08:56:28.100Z,69.22
2023-09-09T08:57:28.169Z,69.16
2023-09-09T08:58:28.039Z,69.75
2023-09-09T08:59:28.027Z,68.74
2023-09-09T09:00:28.030Z,67.72
2023-09-09T09:01:28.151Z,69.19
2023-09-09T09:02:28.030Z,67.94
2023-09-09T09:03:28.037Z,68.57
2023-09-09T09:04:28.048Z,68.96
2023-09-09T09:05:27.973Z,70.44
2023-09-09T09:06:27.958Z,70.00
2023-09-09T09:07:27.916Z,67.90
2023-09-09T09:08:27.921Z,68.87
2023-09-09T09:09:27.877Z,69.61
2023-09-09T09:10:27.907Z,69.41
2023-09-09T09:11:27.873Z,68.63
2023-09-09T09:12:27.830Z,67.77
2023-09-09T09:13:27.825Z,68.79
2023-09-09T09:14:27.794Z,70.23
2023-09-09T09:15:27.804Z,70.10
2023-09-09T09:16:27.762Z,70.13
2023-09-09T09:17:27.795Z,70.03
2023-09-09T09:18:27.788Z,68.81
2023-09-09T09:19:27.720Z,68.75
2023-09-09T09:20:27.723Z,68.40
2023-09-09T09:21:27.691Z,69.34
2023-09-09T09:22:27.664Z,69.84
2023-09-09T09:23:27.648Z,70.62
2023-09-09T09:24:28.128Z,69.99
2023-09-09T09:25:27.649Z,70.03
2023-09-09T09:26:27.632Z,70.15
2023-09-09T09:27:27.590Z,70.59
2023-09-09T09:28:27.570Z,70.88
2023-09-09T09:29:27.613Z,69.78
2023-09-09T09:30:29.340Z,69.81
2023-09-09T09:31:28.649Z,68.25
2023-09-09T09:32:27.546Z,71.62
2023-09-09T09:33:27.558Z,69.77
2023-09-09T09:34:27.506Z,69.76
2023-09-09T09:35:27.469Z,70.21
2023-09-09T09:36:27.452Z,70.17
2023-09-09T09:37:27.457Z,70.32
2023-09-09T09:38:27.444Z,69.95
2023-09-09T09:39:27.423Z,70.11
2023-09-09T09:40:27.377Z,69.74
2023-09-09T09:41:27.370Z,70.60
2023-09-09T09:42:27.365Z,70.28
2023-09-09T09:43:27.357Z,69.23
2023-09-09T09:44:27.353Z,68.75
2023-09-09T09:45:27.290Z,67.63
2023-09-09T09:46:27.288Z,68.44
2023-09-09T09:47:27.286Z,70.47
2023-09-09T09:48:27.279Z,69.87
2023-09-09T09:49:27.222Z,68.43
2023-09-09T09:50:27.209Z,69.84
2023-09-09T09:51:27.192Z,67.45
2023-09-09T09:52:27.248Z,69.89
2023-09-09T09:53:27.185Z,70.05
2023-09-09T09:54:27.186Z,68.92
2023-09-09T09:55:27.126Z,67.84
2023-09-09T09:56:27.110Z,74.31
2023-09-09T09:57:27.117Z,69.55
2023-09-09T09:58:27.102Z,69.98
2023-09-09T09:59:27.065Z,69.64
2023-09-09T10:00:27.053Z,69.76
2023-09-09T10:01:27.049Z,70.50
2023-09-09T10:02:27.063Z,68.68
2023-09-09T10:03:26.982Z,69.66
2023-09-09T10:04:26.995Z,70.74
2023-09-09T10:05:26.963Z,68.59
2023-09-09T10:06:26.978Z,69.92
2023-09-09T10:07:26.935Z,67.71
2023-09-09T10:08:26.904Z,68.25
2023-09-09T10:09:26.885Z,69.42
2023-09-09T10:10:26.871Z,70.10
2023-09-09T10:11:26.888Z,69.29
2023-09-09T10:12:42.177Z,68.33
2023-09-09T10:13:28.853Z,69.76
2023-09-09T10:14:26.805Z,70.59
2023-09-09T10:15:26.805Z,70.53
2023-09-09T10:16:26.936Z,70.44
2023-09-09T10:17:26.767Z,69.09
2023-09-09T10:18:26.726Z,70.79
2023-09-09T10:19:26.707Z,69.08
2023-09-09T10:20:27.730Z,69.65
2023-09-09T10:21:40.390Z,70.51
2023-09-09T10:22:28.662Z,70.79
2023-09-09T10:23:26.642Z,67.89
2023-09-09T10:24:26.622Z,71.05
2023-09-09T10:25:26.783Z,71.23
2023-09-09T10:26:26.614Z,71.14
2023-09-09T10:27:26.612Z,70.80
2023-09-09T10:28:26.669Z,69.56
2023-09-09T10:29:26.608Z,70.30
2023-09-09T10:30:26.571Z,69.32
2023-09-09T10:31:26.560Z,71.04
2023-09-09T10:32:26.483Z,70.85
2023-09-09T10:33:26.468Z,70.54
2023-09-09T10:34:26.486Z,70.76
2023-09-09T10:35:26.463Z,69.38
2023-09-09T10:36:26.421Z,70.62
2023-09-09T10:37:26.399Z,69.26
2023-09-09T10:38:26.380Z,68.67
2023-09-09T10:39:26.531Z,69.71
2023-09-09T10:40:26.351Z,70.60
2023-09-09T10:41:26.325Z,70.64
2023-09-09T10:42:26.323Z,68.69
2023-09-09T10:43:26.328Z,68.19
2023-09-09T10:44:26.332Z,70.17
2023-09-09T10:45:26.261Z,69.10
2023-09-09T10:46:26.301Z,68.67
2023-09-09T10:47:26.258Z,68.67
2023-09-09T10:48:26.246Z,68.31
2023-09-09T10:49:26.191Z,70.04
2023-09-09T10:50:26.242Z,70.48
2023-09-09T10:51:26.147Z,70.27
2023-09-09T10:52:26.139Z,68.77
2023-09-09T10:53:26.140Z,69.91
2023-09-09T10:54:26.123Z,69.92
2023-09-09T10:55:26.072Z,71.31
2023-09-09T10:56:27.062Z,72.02
2023-09-09T10:57:26.110Z,70.89
2023-09-09T10:58:26.052Z,69.61
2023-09-09T10:59:26.019Z,69.06
2023-09-09T11:00:25.986Z,70.97
2023-09-09T11:01:26.040Z,70.80
2023-09-09T11:02:26.046Z,68.53
2023-09-09T11:03:25.931Z,70.45
2023-09-09T11:04:25.966Z,68.69
2023-09-09T11:05:25.972Z,70.85
2023-09-09T11:06:25.993Z,68.86
2023-09-09T11:07:25.882Z,66.78
2023-09-09T11:08:25.861Z,68.28
2023-09-09T11:09:25.816Z,69.52
2023-09-09T11:10:25.811Z,68.96
2023-09-09T11:11:25.820Z,68.43
2023-09-09T11:12:25.789Z,69.93
2023-09-09T11:13:25.748Z,68.58
2023-09-09T11:14:25.727Z,71.98
2023-09-09T11:15:25.714Z,69.80
2023-09-09T11:16:25.801Z,71.20
2023-09-09T11:17:25.724Z,71.14
2023-09-09T11:18:25.663Z,70.36
2023-09-09T11:19:25.648Z,69.32
2023-09-09T11:20:25.818Z,70.34
2023-09-09T11:21:25.673Z,68.92
2023-09-09T11:22:25.595Z,71.13
2023-09-09T11:23:25.609Z,71.57
2023-09-09T11:24:25.573Z,69.25
2023-09-09T11:25:25.572Z,70.24
2023-09-09T11:26:25.550Z,69.30
2023-09-09T11:27:25.512Z,68.44
2023-09-09T11:28:25.518Z,69.62
2023-09-09T11:29:36.305Z,69.85
2023-09-09T11:30:27.476Z,69.86
2023-09-09T11:31:25.479Z,69.66
2023-09-09T11:32:25.598Z,71.31
2023-09-09T11:33:25.469Z,70.37
2023-09-09T11:34:25.406Z,70.50
2023-09-09T11:35:25.390Z,70.73
2023-09-09T11:36:25.359Z,68.64
2023-09-09T11:37:26.526Z,70.68
2023-09-09T11:38:25.329Z,67.05
2023-09-09T11:39:25.313Z,68.68
2023-09-09T11:40:25.272Z,70.29
2023-09-09T11:41:25.262Z,68.45
2023-09-09T11:42:25.229Z,66.48
2023-09-09T11:43:25.243Z,68.55
2023-09-09T11:44:25.273Z,68.26
2023-09-09T11:45:25.196Z,68.94
2023-09-09T11:46:25.211Z,67.93
2023-09-09T11:47:25.143Z,66.65
2023-09-09T11:48:25.167Z,68.84
2023-09-09T11:49:25.116Z,67.59
2023-09-09T11:50:25.110Z,68.25
2023-09-09T11:51:25.098Z,69.47
2023-09-09T11:52:25.064Z,68.46
2023-09-09T11:53:25.098Z,69.58
2023-09-09T11:54:25.011Z,69.54
2023-09-09T11:55:24.990Z,68.17
2023-09-09T11:56:24.974Z,66.59
2023-09-09T11:57:24.990Z,67.08
2023-09-09T11:58:24.983Z,69.45
2023-09-09T11:59:24.923Z,68.79
2023-09-09T12:00:24.907Z,68.98
2023-09-09T12:01:25.010Z,69.81
2023-09-09T12:02:25.052Z,68.65
2023-09-09T12:03:24.875Z,68.59
2023-09-09T12:04:25.995Z,69.04
2023-09-09T12:05:27.267Z,70.80
2023-09-09T12:06:24.796Z,66.96
2023-09-09T12:07:24.808Z,68.75
2023-09-09T12:08:25.760Z,68.10
2023-09-09T12:09:24.739Z,68.63
2023-09-09T12:10:24.740Z,70.15
2023-09-09T12:11:24.814Z,67.26
2023-09-09T12:12:24.734Z,68.95
2023-09-09T12:13:24.673Z,69.59
2023-09-09T12:14:25.256Z,67.07
2023-09-09T12:15:24.631Z,67.86
2023-09-09T12:16:24.682Z,67.34
2023-09-09T12:17:24.631Z,67.20
2023-09-09T12:18:24.608Z,66.57
2023-09-09T12:19:24.561Z,67.18
2023-09-09T12:20:24.544Z,68.51
2023-09-09T12:21:24.836Z,67.45
2023-09-09T12:22:24.514Z,67.30
2023-09-09T12:23:24.493Z,65.94
2023-09-09T12:24:24.469Z,67.27
2023-09-09T12:25:24.478Z,69.65
2023-09-09T12:26:24.462Z,69.65
2023-09-09T12:27:24.415Z,70.28
2023-09-09T12:28:24.403Z,70.02
2023-09-09T12:29:24.384Z,69.67
2023-09-09T12:30:24.394Z,69.06
2023-09-09T12:31:24.383Z,67.48
2023-09-09T12:32:24.355Z,66.34
2023-09-09T12:33:24.317Z,68.53
2023-09-09T12:34:24.306Z,65.88
2023-09-09T12:35:24.304Z,67.79
2023-09-09T12:36:24.281Z,69.58
2023-09-09T12:37:24.256Z,67.69
2023-09-09T12:38:24.224Z,70.45
2023-09-09T12:39:24.237Z,69.36
2023-09-09T12:40:24.224Z,69.11
2023-09-09T12:41:24.196Z,69.60
2023-09-09T12:42:24.158Z,68.96
2023-09-09T12:43:24.163Z,70.94
2023-09-09T12:44:24.158Z,70.63
2023-09-09T12:45:24.251Z,69.41
2023-09-09T12:46:24.184Z,70.83
2023-09-09T12:47:24.149Z,70.37
2023-09-09T12:48:24.085Z,70.59
2023-09-09T12:49:24.071Z,69.84
2023-09-09T12:50:24.019Z,67.78
2023-09-09T12:51:24.036Z,69.39
2023-09-09T12:52:23.978Z,66.86
2023-09-09T12:53:23.995Z,67.55